Terminal Aerodrome Forecast
Issued by NWS Northern Indiana

Home | Current Version | Previous Version | Graphics & Text | Print | Product List | Glossary On
Versions: 1 2 3 4 5 6 7 8 9 10 11 12 13 14 15 16 17 18
000
FTUS43 KIWX 161911 AAA
TAFFWA
TAF AMD
KFWA 161911Z 1619/1718 08006KT 1/2SM FG OVC004
      TEMPO 1620/1624 1/4SM FG VV003
     FM170000 11007KT 1/2SM -RA FG OVC003
     FM170600 14007KT 1SM -RA BR OVC003 WS020/19040KT
     FM171100 20008KT 1 1/2SM -RA BR OVC004
     FM171600 24010KT 3SM BR OVC008=

USA.gov is the U.S. government's official web portal to all federal, state and local government web resources and services.